Nearby METAR Reports

 

KBUF - Buffalo/Cheektow, New York, USA
Distance from station: 0 0mi, 0km
Updated: 09/27/2022 12:54am
Light rain, Overcast
Light rain, Overcast
 Wind from WSW
Wind: WSW 14 mph , 22 km/h, Gust: 24 mph , 39 km/h
Temperature: 54°F , 12°C
Dew Point: 50°F , 10°C
Humidity: 88%
Barometer: 29.65 inHg , 1004.1 hPa
Summary: Light rain
Clouds: Overcast
Visibility: 10 miles , 16 km
Cloud details: Few Clouds 4500 ft
Overcast 6500 ft
2022/09/27 04:54 KBUF 270454Z 25012G21KT 10SM -RA FEW045 OVC065 12/10 A2965 RMK AO2 SLP043 P0000 T01220100 401440111
KIAG - Niagara Falls, New York, USA
Distance from station: NW 16mi, 26km
Updated: 09/27/2022 12:53am
Light rain, Overcast
Light rain, Overcast
 Wind from W
Wind: W 15 mph , 24 km/h
Temperature: 55°F , 13°C
Dew Point: 52°F , 11°C
Humidity: 88%
Barometer: 29.64 inHg , 1003.7 hPa
Summary: Light rain
Clouds: Overcast
Visibility: 10 miles , 16 km
Cloud details: Mostly cloudy 6000 ft
Mostly cloudy 8000 ft
Overcast 9500 ft
2022/09/27 04:53 KIAG 270453Z AUTO 26013KT 10SM -RA BKN060 BKN080 OVC095 13/11 A2964 RMK AO2 RAB42 SLP038 P0000 T01280106 401780117
 
CWPC - Port Colborne(Au, Ontario, Canada
Distance from station: W 27mi, 43km
Updated: 09/27/2022 12:00am

 Wind from W
Wind: W 25 mph , 41 km/h
Temperature: 57°F , 14°C
Dew Point: 52°F , 11°C
Humidity: 82%
2022/09/27 04:00 CWPC 270400Z AUTO 28022KT 14/11 RMK AO1 PK WND 27033/0304 SLP054 T01400109 52010
CYSN - St. Catharines A, Ontario, Canada
Distance from station: NW 29mi, 46km
Updated: 09/26/2022 9:00pm
NOT Current
Mostly cloudy
Mostly cloudy
 Wind from WSW
Wind: WSW 15 mph , 24 km/h, Gust: 26 mph , 43 km/h
Temperature: 57°F , 14°C
Dew Point: 50°F , 10°C
Humidity: 77%
Barometer: 29.59 inHg , 1002 hPa
Clouds: Mostly cloudy
Visibility: 15 miles , 24 km
Cloud details: Few Clouds 11000 ft
Mostly cloudy 16000 ft
2022/09/27 01:00 CYSN 270100Z 24013G23KT 15SM FEW110 BKN160 14/10 A2959 RMK AC2AC5 LAST STFD OBS/NEXT 271100Z SLP022 DENSITY ALT 700FT
 
CWWZ - Port Weller (mar, Ontario, Canada
Distance from station: NW 33mi, 53km
Updated: 09/27/2022 12:00am

 Wind from WSW
Wind: WSW 16 mph , 26 km/h, Gust: 28 mph , 44 km/h
Temperature: 57°F , 14°C
Dew Point: 54°F , 12°C
Humidity: 88%
2022/09/27 04:00 CWWZ 270400Z AUTO 25014G24KT 14/12 RMK AO1 2PAST HR 2013 PK WND 26027/0301 SLP035 P0001 T01410124 50013
CXVN - Vineland (au8), Ontario, Canada
Distance from station: WNW 38mi, 61km
Updated: 09/27/2022 12:00am

 Wind from WSW
Wind: WSW 14 mph , 22 km/h, Gust: 23 mph , 37 km/h
Temperature: 55°F , 13°C
Dew Point: 50°F , 10°C
Humidity: 82%
2022/09/27 04:00 CXVN 270400Z AUTO 24012G20KT 13/10 RMK AO1 3PAST HR 1013 PK WND 26020/0355 SLP033 P0001 T01250095 50009
 
KDKK - Dunkirk, New York, USA
Distance from station: SW 41mi, 66km
Updated: 09/24/2022 12:53pm
NOT Current
Partly cloudy
Partly cloudy
 Wind from WSW
Wind: WSW 9 mph , 15 km/h
Temperature: 63°F , 17°C
Dew Point: 48°F , 9°C
Humidity: 59%
Barometer: 30.04 inHg , 1017.3 hPa
Clouds: Partly cloudy
Visibility: 10 miles , 16 km
Cloud details: Partly cloudy 3900 ft
2022/09/24 16:53 KDKK 241653Z AUTO 25008KT 10SM SCT039 17/09 A3004 RMK AO2 SLP174 T01670094 $
KOLE - Olean, New York, USA
Distance from station: SSE 52mi, 83km
Updated: 09/27/2022 12:55am
Drizzle, Overcast
Drizzle, Overcast
 Wind from SW
Wind: SW 9 mph , 15 km/h
Temperature: 46°F , 8°C
Wind Chill: 41°F , 5°C
Dew Point: 46°F , 8°C
Humidity: 100%
Barometer: 29.71 inHg , 1006.1 hPa
Summary: Drizzle
Clouds: Overcast
Visibility: 7 miles , 11 km
Cloud details: Overcast 500 ft
2022/09/27 04:55 KOLE 270455Z AUTO 23008KT 7SM DZ OVC005 08/08 A2971 RMK AO2
 
KROC - Rochester, New York, USA
Distance from station: ENE 55mi, 88km
Updated: 09/27/2022 12:54am
Overcast
Overcast
 Wind from SW
Wind: SW 15 mph , 24 km/h
Temperature: 54°F , 12°C
Dew Point: 50°F , 10°C
Humidity: 88%
Barometer: 29.63 inHg , 1003.4 hPa
Clouds: Overcast
Visibility: 10 miles , 16 km
Cloud details: Few Clouds 2200 ft
Mostly cloudy 3100 ft
Overcast 6000 ft
2022/09/27 04:54 KROC 270454Z 23013KT 10SM FEW022 BKN031 OVC060 12/10 A2963 RMK AO2 SLP036 T01220100 401780106
KDSV - Dansville, New York, USA
Distance from station: ESE 57mi, 92km
Updated: 09/27/2022 12:54am
Few Clouds
Few Clouds
 Wind from calm
Wind: Calm
Temperature: 55°F , 13°C
Dew Point: 46°F , 8°C
Humidity: 72%
Barometer: 29.69 inHg , 1005.4 hPa
Clouds: Few Clouds
Visibility: 10 miles , 16 km
Cloud details: Few Clouds 3400 ft
Few Clouds 5500 ft
2022/09/27 04:54 KDSV 270454Z AUTO 00000KT 10SM FEW034 FEW055 13/08 A2969 RMK AO2 SLP061 T01280083 401780106
 
CWWB - Burlington Piers, Ontario, Canada
Distance from station: WNW 59mi, 94km
Updated: 09/27/2022 12:00am

 Wind from WSW
Wind: WSW 10 mph , 17 km/h, Gust: 18 mph , 30 km/h
Temperature: 55°F , 13°C
Dew Point: 50°F , 10°C
Humidity: 82%
2022/09/27 04:00 CWWB 270400Z AUTO 24009G16KT 13/10 RMK AO1 SLP038 T01340104 51015
CYTZ - Toronto Il Vor, Ontario, Canada
Distance from station: NW 59mi, 95km
Updated: 09/27/2022 12:00am
Overcast
Overcast
 Wind from W
Wind: W 17 mph , 28 km/h, Gust: 23 mph , 37 km/h
Temperature: 57°F , 14°C
Dew Point: 52°F , 11°C
Humidity: 82%
Barometer: 29.59 inHg , 1002 hPa
Clouds: Overcast
Visibility: 9 miles , 14 km
Cloud details: Mostly cloudy 4300 ft
Overcast 7100 ft
2022/09/27 04:00 CYTZ 270400Z AUTO 28015G20KT 9SM BKN043 OVC071 14/11 A2959 RMK SLP021 DENSITY ALT 600FT
 
CXTO - Toronto City, Ontario, Canada
Distance from station: NW 61mi, 98km
Updated: 09/27/2022 12:00am

 
Temperature: 57°F , 14°C
Dew Point: 50°F , 10°C
Humidity: 77%
2022/09/27 04:00 CXTO 270400Z AUTO 14/10 RMK AO1 1018 SLP021 T01360095 50007
KJHW - Jamestown, New York, USA
Distance from station: SSW 62mi, 99km
Updated: 09/27/2022 12:56am
Rain, Overcast
Rain, Overcast
 Wind from WSW
Wind: WSW 9 mph , 15 km/h
Temperature: 48°F , 9°C
Wind Chill: 44°F , 7°C
Barometer: 29.74 inHg , 1007.1 hPa
Summary: Rain
Clouds: Overcast
Visibility: 9 miles , 14 km
Cloud details: Overcast 400 ft
2022/09/27 04:56 KJHW 270456Z AUTO 24008KT 9SM RA OVC004 09/ A2974 RMK AO2 SLP078 T0094 401220083
 
CYHM - Hamilton Airport, Ontario, Canada
Distance from station: WNW 63mi, 101km
Updated: 09/27/2022 12:00am
Overcast
Overcast
 Wind from WSW
Wind: WSW 12 mph , 19 km/h, Gust: 18 mph , 30 km/h
Temperature: 52°F , 11°C
Dew Point: 50°F , 10°C
Humidity: 94%
Barometer: 29.65 inHg , 1004.1 hPa
Clouds: Overcast
Visibility: 15 miles , 24 km
Cloud details: Few Clouds 1000 ft
Few Clouds 8000 ft
Overcast 9000 ft
2022/09/27 04:00 CYHM 270400Z 25010G16KT 15SM FEW010 FEW080 OVC090 11/10 A2965 RMK SF1AC2AS6 SF TR SLP043 DENSITY ALT 900FT
CXHM - Hamilton Rbg Cs, Ontario, Canada
Distance from station: WNW 64mi, 102km
Updated: 09/27/2022 12:00am

 Wind from W
Wind: W 6 mph , 9 km/h
Temperature: 55°F , 13°C
Dew Point: 50°F , 10°C
Humidity: 82%
2022/09/27 04:00 CXHM 270400Z AUTO 27005KT 13/10 RMK AO1 SLP038 T01280099 51015
 
CYYZ - Toronto/Pearson, Ontario, Canada
Distance from station: NW 67mi, 108km
Updated: 09/27/2022 12:00am
Overcast
Overcast
 Wind from W
Wind: W 17 mph , 28 km/h, Gust: 24 mph , 39 km/h
Temperature: 55°F , 13°C
Dew Point: 54°F , 12°C
Humidity: 94%
Barometer: 29.59 inHg , 1002 hPa
Clouds: Overcast
Visibility: 15 miles , 24 km
Cloud details: Few Clouds 2500 ft
Partly cloudy 4400 ft
Mostly cloudy 10000 ft
Overcast 15000 ft
2022/09/27 04:00 CYYZ 270400Z 26015G21KT 15SM FEW025 SCT044 BKN100 OVC150 13/12 A2959 RMK CF1SC3AC3AC2 CF TR SLP024 DENSITY ALT 900FT
CYOO - Oshawa, Ontario, Canada
Distance from station: N 68mi, 110km
Updated: 09/27/2022 12:00am
Overcast
Overcast
 Wind from W
Wind: W 12 mph , 19 km/h
Temperature: 55°F , 13°C
Dew Point: 52°F , 11°C
Humidity: 88%
Barometer: 29.55 inHg , 1000.7 hPa
Clouds: Overcast
Visibility: 9 miles , 14 km
Cloud details: Partly cloudy 1800 ft
Partly cloudy 2900 ft
Mostly cloudy 3400 ft
Overcast 7100 ft
2022/09/27 04:00 CYOO 270400Z AUTO 27010KT 9SM SCT018 SCT029 BKN034 OVC071 13/11 A2955 RMK SLP010 DENSITY ALT 800FT
 
KELZ - Wellsville, New York, USA
Distance from station: SE 69mi, 111km
Updated: 09/27/2022 12:56am
Overcast
Overcast
 Wind from SW
Wind: SW 13 mph , 20 km/h, Gust: 22 mph , 35 km/h
Temperature: 50°F , 10°C
Wind Chill: 45°F , 7°C
Dew Point: 45°F , 7°C
Humidity: 82%
Barometer: 29.73 inHg , 1006.8 hPa
Clouds: Overcast
Visibility: 8 miles , 13 km
Cloud details: Overcast 1100 ft
2022/09/27 04:56 KELZ 270456Z AUTO 23011G19KT 8SM OVC011 10/07 A2973 RMK AO2 SLP070 T01000072 401610100 TSNO
CWNC - Cobourg (mars), Ontario, Canada
Distance from station: NNE 76mi, 122km
Updated: 09/27/2022 12:00am

 Wind from W
Wind: W 14 mph , 22 km/h, Gust: 21 mph , 33 km/h
Temperature: 54°F , 12°C
Dew Point: 52°F , 11°C
Humidity: 94%
2022/09/27 04:00 CWNC 270400Z AUTO 27012G18KT 12/11 RMK AO1 5000 PK WND 27029/0318 SLP993 T01210108 50021